Time;durP1;ratioP1;P1;durP2;ratioP2;P2;SDS_P1;SDS_P2;PMS_P1;PMS_P2;Temp;Humidity;BMP_temperature;BMP_pressure;BME280_temperature;BME280_humidity;BME280_pressure;Samples;Min_cycle;Max_cycle;Signal;HPM_P1;HPM_P2
2022/09/05 00:00:22;;;;;;;3.97;3.58;;;;;;;18.59;75.10;95474.63;5055550;28;20197;-73
2022/09/05 00:03:02;;;;;;;4.72;4.22;;;;;;;18.57;74.78;95475.03;5055214;28;20182;-73
2022/09/05 00:05:50;;;;;;;4.60;4.25;;;;;;;18.55;75.19;95474.59;5055424;28;20290;-73
2022/09/05 00:08:22;;;;;;;5.78;5.28;;;;;;;18.50;74.56;95473.00;5055153;28;20240;-73
2022/09/05 00:10:56;;;;;;;6.18;5.40;;;;;;;18.41;74.31;95467.00;5055226;28;20209;-73
2022/09/05 00:13:25;;;;;;;6.05;5.35;;;;;;;18.35;74.03;95473.38;5055272;28;20221;-73
2022/09/05 00:16:05;;;;;;;6.57;5.88;;;;;;;18.28;74.22;95466.56;5054975;28;20194;-73
2022/09/05 00:18:51;;;;;;;6.15;5.72;;;;;;;18.20;74.71;95467.72;5055797;28;20597;-73
2022/09/05 00:21:31;;;;;;;6.70;6.30;;;;;;;18.16;75.17;95471.69;5056058;28;20189;-73
2022/09/05 00:24:19;;;;;;;6.43;5.93;;;;;;;18.18;75.57;95480.47;5055077;28;20643;-73
2022/09/05 00:26:53;;;;;;;6.18;5.68;;;;;;;18.13;75.33;95484.44;5054710;28;20202;-73
2022/09/05 00:29:31;;;;;;;6.57;6.07;;;;;;;18.14;75.51;95490.81;5055235;28;20578;-73
2022/09/05 00:32:01;;;;;;;6.88;6.38;;;;;;;18.13;75.62;95490.03;5054916;28;20198;-73
2022/09/05 00:34:49;;;;;;;6.90;6.28;;;;;;;18.12;76.16;95482.03;5055444;28;20222;-73
2022/09/05 00:37:30;;;;;;;6.88;6.28;;;;;;;18.09;76.53;95485.63;5055094;28;20618;-73
2022/09/05 00:40:15;;;;;;;6.38;5.88;;;;;;;18.11;76.30;95489.59;5055690;28;20244;-73
2022/09/05 00:42:44;;;;;;;7.18;6.57;;;;;;;18.09;76.08;95485.63;5055583;28;20178;-72
2022/09/05 00:45:14;;;;;;;7.13;6.53;;;;;;;18.09;76.04;95494.00;5055483;28;20182;-73
2022/09/05 00:47:45;;;;;;;7.60;7.00;;;;;;;18.08;75.98;95497.97;5054626;28;20197;-72
2022/09/05 00:50:16;;;;;;;8.18;7.47;;;;;;;18.09;75.74;95488.41;5055105;28;20186;-73
2022/09/05 00:52:49;;;;;;;8.05;7.25;;;;;;;18.10;75.36;95496.38;5055214;28;20544;-72
2022/09/05 00:55:21;;;;;;;7.20;6.60;;;;;;;18.10;75.12;95490.00;5054546;28;20208;-72
2022/09/05 00:58:08;;;;;;;7.93;7.13;;;;;;;18.08;75.39;95486.78;5055387;28;20578;-72
2022/09/05 01:00:45;;;;;;;7.70;7.10;;;;;;;18.08;75.80;95487.59;5054060;28;20202;-73
2022/09/05 01:03:26;;;;;;;7.57;6.97;;;;;;;18.08;75.51;95489.59;5054536;28;20235;-73
2022/09/05 01:06:19;;;;;;;7.80;7.13;;;;;;;18.07;75.23;95501.94;5054418;28;20197;-73
2022/09/05 01:09:03;;;;;;;7.85;7.18;;;;;;;18.09;75.03;95496.78;5055022;28;20621;-73
2022/09/05 01:11:38;;;;;;;7.72;7.13;;;;;;;18.08;74.75;95500.75;5054454;28;20194;-73
2022/09/05 01:14:17;;;;;;;8.38;7.53;;;;;;;18.08;74.61;95501.53;5054755;28;20213;-73
2022/09/05 01:16:58;;;;;;;8.02;7.30;;;;;;;18.10;74.70;95493.59;5055219;28;20217;-73
2022/09/05 01:19:31;;;;;;;7.68;7.07;;;;;;;18.11;74.79;95495.19;5054817;28;20193;-73
2022/09/05 01:22:18;;;;;;;7.95;7.32;;;;;;;18.10;74.70;95496.38;5054208;28;20503;-73
2022/09/05 01:24:54;;;;;;;7.25;6.53;;;;;;;18.10;74.19;95499.19;5054947;28;20182;-73
2022/09/05 01:27:42;;;;;;;8.55;6.90;;;;;;;18.11;74.10;95488.81;5054031;28;20205;-73
2022/09/05 01:30:11;;;;;;;7.03;6.43;;;;;;;18.10;73.75;95490.81;5054677;28;20201;-73
2022/09/05 01:32:46;;;;;;;7.18;6.57;;;;;;;18.09;73.75;95489.22;5054170;28;20205;-73
2022/09/05 01:35:46;;;;;;;7.10;6.55;;;;;;;18.07;73.66;95482.41;5055077;28;20182;-73
2022/09/05 01:38:20;;;;;;;7.22;6.70;;;;;;;18.07;73.61;95483.22;5051191;28;20201;-73
2022/09/05 01:40:53;;;;;;;7.15;6.55;;;;;;;18.08;73.60;95484.81;5055004;28;20189;-73
2022/09/05 01:43:30;;;;;;;7.13;6.53;;;;;;;18.10;73.59;95484.44;5054910;28;20200;-73
2022/09/05 01:46:00;;;;;;;6.45;5.95;;;;;;;18.08;73.46;95481.22;5053982;28;20209;-73
2022/09/05 01:48:35;;;;;;;7.50;6.90;;;;;;;18.07;73.52;95480.41;5053607;28;20200;-73
2022/09/05 01:51:12;;;;;;;7.10;6.60;;;;;;;18.07;73.39;95482.41;5054040;28;20193;-73
2022/09/05 01:53:42;;;;;;;7.13;6.53;;;;;;;18.06;73.12;95486.41;5053521;28;20210;-73
2022/09/05 01:56:36;;;;;;;7.32;6.72;;;;;;;18.05;73.04;95488.41;5053509;28;20301;-73
2022/09/05 01:59:16;;;;;;;7.68;7.10;;;;;;;18.06;73.24;95486.41;5039928;28;20271;-73
2022/09/05 02:02:01;;;;;;;6.88;6.28;;;;;;;18.05;73.21;95491.19;5053987;28;20201;-73
2022/09/05 02:05:04;;;;;;;7.28;6.60;;;;;;;18.04;72.82;95487.56;5054214;28;20205;-73
2022/09/05 02:07:37;;;;;;;7.57;6.88;;;;;;;18.05;73.11;95485.59;5049726;28;20565;-73
2022/09/05 02:10:25;;;;;;;6.20;5.80;;;;;;;18.04;73.41;95493.16;5053409;28;20301;-73
2022/09/05 02:12:57;;;;;;;6.13;5.63;;;;;;;18.04;73.39;95493.16;5089059;28;20205;-73
2022/09/05 02:15:28;;;;;;;6.47;6.00;;;;;;;18.03;73.39;95485.97;5057367;28;20190;-73
2022/09/05 02:17:57;;;;;;;6.93;6.32;;;;;;;18.04;72.94;95487.56;5090680;28;20206;-73
2022/09/05 02:20:27;;;;;;;6.43;5.93;;;;;;;18.05;72.88;95485.59;5058162;28;20186;-73
2022/09/05 02:23:00;;;;;;;6.82;6.32;;;;;;;18.04;72.68;95489.56;5057692;28;20198;-73
2022/09/05 02:25:30;;;;;;;6.65;6.15;;;;;;;18.06;72.79;95483.63;5057440;28;20202;-73
2022/09/05 02:28:01;;;;;;;7.13;6.57;;;;;;;18.04;72.50;95490.38;5057304;28;20311;-73
2022/09/05 02:30:34;;;;;;;6.80;6.30;;;;;;;18.02;72.81;95484.38;5057134;28;20204;-73
2022/09/05 02:33:09;;;;;;;6.68;6.18;;;;;;;18.03;72.57;95491.56;5057349;28;20186;-73
2022/09/05 02:35:41;;;;;;;7.00;6.50;;;;;;;18.03;72.69;95496.34;5090829;28;20212;-73
2022/09/05 02:38:11;;;;;;;7.18;6.32;;;;;;;18.02;72.52;95501.13;5057995;28;20181;-73
2022/09/05 02:40:44;;;;;;;6.78;6.18;;;;;;;18.00;72.47;95497.91;5058340;28;20255;-72
2022/09/05 02:43:21;;;;;;;6.60;6.10;;;;;;;18.01;72.57;95493.13;5057072;28;20204;-72
2022/09/05 02:45:58;;;;;;;7.13;6.53;;;;;;;17.99;72.36;95496.34;5056739;28;20205;-73
2022/09/05 02:48:29;;;;;;;6.60;6.10;;;;;;;17.97;72.53;95490.34;5057462;28;20629;-72
2022/09/05 02:51:03;;;;;;;6.93;6.35;;;;;;;17.97;72.35;95501.53;5057053;28;20194;-72
2022/09/05 02:53:32;;;;;;;6.55;6.05;;;;;;;17.97;72.29;95506.28;5057135;28;20232;-73
2022/09/05 02:56:23;;;;;;;6.53;6.03;;;;;;;17.97;72.42;95497.91;5056489;28;20193;-73
2022/09/05 02:58:58;;;;;;;6.97;6.47;;;;;;;17.97;72.12;95506.28;5057766;28;20201;-72
2022/09/05 03:01:39;;;;;;;5.78;5.28;;;;;;;17.97;72.26;95503.47;5056830;28;20207;-72
2022/09/05 03:04:20;;;;;;;6.32;5.82;;;;;;;17.98;71.83;95507.91;5056371;28;20284;-72
2022/09/05 03:06:58;;;;;;;5.95;5.45;;;;;;;17.97;71.62;95509.06;5056652;28;20316;-72
2022/09/05 03:09:38;;;;;;;7.88;5.85;;;;;;;17.96;71.49;95513.84;5056651;28;20217;-72
2022/09/05 03:12:32;;;;;;;5.72;5.22;;;;;;;17.95;71.27;95512.25;5056476;28;20205;-70
2022/09/05 03:15:31;;;;;;;5.72;5.03;;;;;;;17.93;71.18;95511.84;5056974;28;20224;-72
2022/09/05 03:18:30;;;;;;;5.63;5.22;;;;;;;17.91;71.12;95511.44;5056378;28;20204;-73
2022/09/05 03:21:23;;;;;;;6.22;5.68;;;;;;;17.92;70.70;95520.59;5056935;28;20197;-73
2022/09/05 03:24:35;;;;;;;5.90;5.45;;;;;;;17.89;70.37;95522.19;5056302;28;20197;-72
2022/09/05 03:27:29;;;;;;;5.32;4.82;;;;;;;17.86;70.48;95524.94;5057628;28;20205;-72
2022/09/05 03:30:10;;;;;;;5.13;4.72;;;;;;;17.87;70.61;95513.41;5024175;28;20224;-73
2022/09/05 03:33:28;;;;;;;4.75;4.43;;;;;;;17.88;70.09;95520.59;5056107;28;20249;-71
2022/09/05 03:36:49;;;;;;;4.65;4.35;;;;;;;17.87;69.91;95526.56;5050624;28;20212;-71
2022/09/05 03:40:00;;;;;;;4.85;4.53;;;;;;;17.86;69.88;95530.53;5056424;28;20205;-71
2022/09/05 03:42:54;;;;;;;4.88;4.35;;;;;;;17.84;70.04;95530.13;4995709;28;20660;-71
2022/09/05 03:45:52;;;;;;;4.47;4.15;;;;;;;17.82;69.65;95530.50;5053273;28;20206;-71
2022/09/05 03:48:39;;;;;;;5.45;4.40;;;;;;;17.80;69.60;95535.69;5051823;28;20205;-71
2022/09/05 03:51:19;;;;;;;4.50;4.20;;;;;;;17.80;69.47;95538.47;5055417;28;20209;-71
2022/09/05 03:53:59;;;;;;;4.93;4.60;;;;;;;17.81;69.96;95545.66;5055459;28;20217;-71
2022/09/05 03:56:38;;;;;;;4.82;4.43;;;;;;;17.78;69.66;95543.63;5055321;28;20204;-71
2022/09/05 03:59:32;;;;;;;5.10;4.60;;;;;;;17.77;69.38;95542.03;5055723;28;20410;-71
2022/09/05 04:02:03;;;;;;;5.00;4.50;;;;;;;17.76;69.92;95552.41;5086440;28;20218;-71
2022/09/05 04:04:33;;;;;;;5.57;4.68;;;;;;;17.78;69.35;95555.59;5056105;28;20228;-71
2022/09/05 04:07:01;;;;;;;5.22;4.70;;;;;;;17.79;69.61;95557.22;5055530;28;20237;-71
2022/09/05 04:09:32;;;;;;;5.40;4.90;;;;;;;17.78;69.46;95561.16;5055181;28;20198;-71
2022/09/05 04:12:01;;;;;;;4.70;4.40;;;;;;;17.77;69.48;95567.94;5055318;28;20197;-71
2022/09/05 04:14:37;;;;;;;5.18;4.68;;;;;;;17.76;69.74;95557.19;5055403;28;20221;-71
2022/09/05 04:17:09;;;;;;;5.88;5.20;;;;;;;17.77;69.43;95564.34;5055081;28;20203;-71
2022/09/05 04:19:41;;;;;;;5.45;4.95;;;;;;;17.78;69.52;95565.94;5054917;28;20202;-71
2022/09/05 04:22:17;;;;;;;6.38;5.70;;;;;;;17.78;69.43;95565.94;5055074;28;20197;-71
2022/09/05 04:24:49;;;;;;;5.80;5.30;;;;;;;17.78;69.62;95575.13;5054853;28;20200;-71
2022/09/05 04:27:29;;;;;;;5.28;4.88;;;;;;;17.79;70.05;95578.69;5055253;28;20213;-71
2022/09/05 04:30:01;;;;;;;5.15;4.75;;;;;;;17.79;69.61;95564.75;5054999;28;20683;-71
2022/09/05 04:32:39;;;;;;;5.93;5.32;;;;;;;17.82;69.37;95583.50;5054982;28;20215;-71
2022/09/05 04:35:21;;;;;;;5.50;5.05;;;;;;;17.81;69.02;95587.50;5055414;28;20222;-71
2022/09/05 04:37:54;;;;;;;5.38;4.88;;;;;;;17.81;69.14;95584.72;5054919;28;20205;-71
2022/09/05 04:40:32;;;;;;;5.57;5.18;;;;;;;17.83;69.29;95599.09;5054951;28;20217;-71
2022/09/05 04:43:02;;;;;;;5.82;5.32;;;;;;;17.84;69.36;95606.25;5054771;28;20554;-71
2022/09/05 04:45:37;;;;;;;5.82;5.28;;;;;;;17.84;69.77;95611.84;5054549;28;20209;-71
2022/09/05 04:48:07;;;;;;;6.80;5.68;;;;;;;17.85;70.48;95618.22;5054315;28;20691;-71
2022/09/05 04:50:43;;;;;;;5.55;5.05;;;;;;;17.86;70.75;95612.25;5054833;28;20204;-71
2022/09/05 04:53:17;;;;;;;5.63;5.22;;;;;;;17.86;71.03;95615.03;5055180;28;20193;-71
2022/09/05 04:55:46;;;;;;;5.88;5.38;;;;;;;17.87;70.70;95615.84;5054626;28;20531;-71
2022/09/05 04:58:22;;;;;;;6.07;5.65;;;;;;;17.88;70.43;95617.44;5054178;28;20205;-71
2022/09/05 05:00:54;;;;;;;6.38;5.78;;;;;;;17.86;70.06;95623.41;5054200;28;20200;-71
2022/09/05 05:03:24;;;;;;;12.93;11.88;;;;;;;17.85;69.90;95623.81;5055348;28;20527;-71
2022/09/05 05:05:56;;;;;;;9.80;8.98;;;;;;;17.85;69.93;95624.59;5053894;28;20201;-71
2022/09/05 05:08:25;;;;;;;8.45;7.65;;;;;;;17.85;70.21;95630.19;5054074;28;20194;-71
2022/09/05 05:10:56;;;;;;;6.75;5.82;;;;;;;17.86;69.67;95637.34;5054644;28;20208;-71
2022/09/05 05:13:26;;;;;;;6.30;5.80;;;;;;;17.85;69.81;95630.19;5054646;28;20200;-70
2022/09/05 05:15:56;;;;;;;6.70;6.10;;;;;;;17.85;69.57;95635.75;5053934;28;20221;-70
2022/09/05 05:18:26;;;;;;;6.15;5.55;;;;;;;17.88;70.02;95642.56;5053994;28;20202;-70
2022/09/05 05:20:58;;;;;;;5.90;5.30;;;;;;;17.88;69.78;95635.00;5054870;28;20178;-71
2022/09/05 05:23:35;;;;;;;6.85;6.25;;;;;;;17.89;69.85;95639.38;5054847;28;20189;-71
2022/09/05 05:26:04;;;;;;;6.15;5.55;;;;;;;17.91;69.96;95650.16;5054141;28;20190;-71
2022/09/05 05:28:48;;;;;;;6.40;5.80;;;;;;;17.90;70.10;95642.97;5055258;28;20201;-71
2022/09/05 05:31:18;;;;;;;7.03;6.07;;;;;;;17.90;69.96;95649.38;5054760;28;20185;-71
2022/09/05 05:33:48;;;;;;;7.95;6.22;;;;;;;17.92;70.25;95651.75;5055106;28;20190;-71
2022/09/05 05:36:18;;;;;;;6.75;6.20;;;;;;;17.93;69.80;95658.94;5054089;28;20209;-71
2022/09/05 05:38:50;;;;;;;6.57;5.97;;;;;;;17.93;69.54;95650.56;5054905;28;20193;-71
2022/09/05 05:41:20;;;;;;;6.38;5.85;;;;;;;17.94;69.47;95658.56;5054234;28;20201;-72
2022/09/05 05:43:49;;;;;;;6.47;5.95;;;;;;;17.95;69.09;95660.16;5055019;28;20189;-71
2022/09/05 05:46:26;;;;;;;7.00;5.50;;;;;;;17.94;69.47;95657.78;5054992;28;20259;-71
2022/09/05 05:48:55;;;;;;;6.47;5.88;;;;;;;17.93;69.33;95664.53;5058857;28;20193;-71
2022/09/05 05:51:33;;;;;;;5.90;5.30;;;;;;;17.93;69.56;95661.72;5058585;28;20198;-71
2022/09/05 05:54:03;;;;;;;6.82;6.32;;;;;;;17.93;69.65;95662.53;5058007;28;20225;-71
2022/09/05 05:56:47;;;;;;;6.55;5.93;;;;;;;17.95;69.91;95664.94;5058982;28;20189;-71
2022/09/05 05:59:50;;;;;;;7.13;5.82;;;;;;;17.97;69.75;95668.97;5091115;28;20194;-71
2022/09/05 06:02:53;;;;;;;6.25;5.75;;;;;;;18.00;69.96;95664.56;5049652;28;20226;-71
2022/09/05 06:05:33;;;;;;;6.35;5.85;;;;;;;18.03;69.81;95666.59;5037838;28;20224;-71
2022/09/05 06:08:08;;;;;;;7.53;6.88;;;;;;;18.04;69.67;95663.41;5058729;28;20256;-71
2022/09/05 06:10:57;;;;;;;13.63;12.52;;;;;;;18.06;69.40;95663.03;5058372;28;20189;-71
2022/09/05 06:14:00;;;;;;;10.60;9.70;;;;;;;18.06;68.68;95662.25;5058636;28;20524;-71
2022/09/05 06:17:01;;;;;;;6.53;6.00;;;;;;;18.06;68.52;95671.41;5058205;28;20201;-71
2022/09/05 06:20:01;;;;;;;8.40;7.70;;;;;;;18.09;68.58;95664.25;5058370;28;20200;-71
2022/09/05 06:23:04;;;;;;;7.18;6.20;;;;;;;18.11;68.77;95657.09;5057368;28;20267;-71
2022/09/05 06:26:11;;;;;;;6.97;6.40;;;;;;;18.14;68.80;95673.06;5058123;28;20186;-71
2022/09/05 06:28:51;;;;;;;6.65;5.82;;;;;;;18.16;68.54;95675.50;5058455;28;20194;-71
2022/09/05 06:31:29;;;;;;;6.28;5.68;;;;;;;18.18;68.15;95679.47;5057836;28;20209;-71
2022/09/05 06:34:04;;;;;;;6.20;5.60;;;;;;;18.14;67.10;95681.44;5057252;28;20622;-71
2022/09/05 06:36:42;;;;;;;5.20;4.78;;;;;;;18.16;67.24;95678.28;5057300;28;20196;-71
2022/09/05 06:39:13;;;;;;;5.30;4.90;;;;;;;18.19;67.18;95681.09;5057517;28;20196;-71
2022/09/05 06:41:58;;;;;;;5.60;5.20;;;;;;;18.23;66.96;95684.72;5056898;28;20197;-71
2022/09/05 06:44:39;;;;;;;5.45;4.97;;;;;;;18.28;67.05;95686.34;5057044;28;20197;-71
2022/09/05 06:47:08;;;;;;;5.93;5.43;;;;;;;18.31;67.20;95693.94;5056746;28;20190;-71
2022/09/05 06:49:47;;;;;;;8.18;5.30;;;;;;;18.33;66.38;95694.34;5057925;28;20182;-71
2022/09/05 06:52:54;;;;;;;5.00;4.60;;;;;;;18.36;65.95;95690.78;5056485;28;20614;-71
2022/09/05 06:55:40;;;;;;;5.40;4.90;;;;;;;18.37;65.89;95692.38;5056495;28;20637;-71
2022/09/05 06:58:53;;;;;;;5.05;4.65;;;;;;;18.40;66.06;95690.78;5056306;28;20206;-71
2022/09/05 07:01:25;;;;;;;4.90;4.50;;;;;;;18.40;64.99;95676.84;5056327;28;20208;-71
2022/09/05 07:04:11;;;;;;;5.03;4.60;;;;;;;18.46;65.92;95683.66;5057638;28;20281;-71
2022/09/05 07:06:48;;;;;;;4.85;4.45;;;;;;;18.50;65.52;95671.31;5055699;28;20237;-71
2022/09/05 07:09:21;;;;;;;4.30;3.90;;;;;;;18.56;65.28;95682.94;5057776;28;20193;-71
2022/09/05 07:11:54;;;;;;;4.40;4.00;;;;;;;18.59;63.74;95678.53;5089907;28;20204;-71
2022/09/05 07:14:25;;;;;;;4.70;4.30;;;;;;;18.58;63.54;95679.75;5056634;28;20201;-71
2022/09/05 07:16:54;;;;;;;4.35;3.97;;;;;;;18.57;63.85;95680.94;5057333;28;20197;-71
2022/09/05 07:19:26;;;;;;;5.20;3.88;;;;;;;18.60;63.87;95680.16;5056485;28;20202;-71
2022/09/05 07:22:19;;;;;;;4.10;3.80;;;;;;;18.64;64.01;95673.41;5055985;28;20193;-71
2022/09/05 07:24:48;;;;;;;4.30;3.90;;;;;;;18.70;63.98;95671.84;5056046;28;20221;-71
2022/09/05 07:27:27;;;;;;;4.72;4.32;;;;;;;18.74;63.14;95669.09;5057041;28;20200;-71
2022/09/05 07:29:56;;;;;;;4.55;4.10;;;;;;;18.76;63.17;95663.91;5056145;28;20204;-71
2022/09/05 07:32:24;;;;;;;4.82;4.38;;;;;;;18.80;63.49;95666.72;5056373;28;20202;-71
2022/09/05 07:34:51;;;;;;;4.47;4.07;;;;;;;18.79;62.71;95670.72;5056076;28;20394;-71
2022/09/05 07:37:22;;;;;;;4.40;4.10;;;;;;;18.81;63.20;95669.13;5055987;28;20201;-72
2022/09/05 07:39:52;;;;;;;4.18;3.83;;;;;;;19.18;66.17;95668.88;5055742;28;20209;-72
2022/09/05 07:42:24;;;;;;;4.00;3.70;;;;;;;19.45;64.55;95669.34;5055677;28;20213;-70
2022/09/05 07:44:56;;;;;;;4.80;3.80;;;;;;;19.60;63.73;95677.78;5056153;28;20546;-72
2022/09/05 07:47:28;;;;;;;3.97;3.67;;;;;;;19.74;62.11;95671.44;5055835;28;20551;-72
2022/09/05 07:49:55;;;;;;;4.00;3.65;;;;;;;19.83;61.43;95675.47;5055837;28;20201;-71
2022/09/05 07:52:26;;;;;;;4.45;4.05;;;;;;;19.93;61.58;95666.28;5056038;28;20198;-72
2022/09/05 07:54:57;;;;;;;3.95;3.65;;;;;;;19.91;61.02;95667.88;5055949;28;20551;-72
2022/09/05 07:57:26;;;;;;;3.97;3.67;;;;;;;19.84;60.96;95670.66;5089302;28;20198;-72
2022/09/05 07:59:56;;;;;;;4.05;3.67;;;;;;;19.90;61.31;95674.66;5055244;28;20194;-72
2022/09/05 08:02:23;;;;;;;4.40;3.58;;;;;;;20.01;60.95;95681.06;5055950;28;20186;-72
2022/09/05 08:04:50;;;;;;;3.65;3.35;;;;;;;20.14;60.34;95679.47;5055785;28;20205;-72
2022/09/05 08:07:20;;;;;;;4.05;3.65;;;;;;;20.28;59.96;95686.25;5055444;28;20364;-72
2022/09/05 08:09:48;;;;;;;3.63;3.38;;;;;;;20.30;59.35;95678.25;5055328;28;20504;-72
2022/09/05 08:12:18;;;;;;;3.80;3.45;;;;;;;20.29;58.58;95683.06;5055336;28;20606;-72
2022/09/05 08:14:51;;;;;;;4.63;4.22;;;;;;;20.14;57.84;95679.47;5054915;28;20197;-72
2022/09/05 08:17:21;;;;;;;4.03;3.63;;;;;;;20.13;58.70;95675.06;5089125;28;20267;-72
2022/09/05 08:20:02;;;;;;;4.45;4.05;;;;;;;20.04;58.25;95671.06;5055336;28;20186;-72
2022/09/05 08:22:33;;;;;;;4.15;3.85;;;;;;;19.90;57.68;95675.47;5055329;28;20224;-72
2022/09/05 08:25:03;;;;;;;3.92;3.63;;;;;;;19.95;59.57;95679.88;5055978;28;20189;-72
2022/09/05 08:27:34;;;;;;;4.38;3.90;;;;;;;20.17;59.02;95681.47;5055183;28;20212;-72
2022/09/05 08:30:03;;;;;;;3.90;3.60;;;;;;;20.26;59.20;95677.44;5055015;28;20205;-72
2022/09/05 08:32:39;;;;;;;4.80;3.80;;;;;;;20.20;58.54;95677.06;5054446;28;20296;-72
2022/09/05 08:35:13;;;;;;;3.70;3.40;;;;;;;20.15;58.44;95678.28;5054620;28;20213;-72
2022/09/05 08:37:41;;;;;;;4.10;3.70;;;;;;;20.07;58.15;95676.66;5055052;28;20196;-72
2022/09/05 08:40:16;;;;;;;4.38;3.97;;;;;;;20.06;58.53;95677.88;5054845;28;20202;-72
2022/09/05 08:42:48;;;;;;;3.83;3.53;;;;;;;20.02;57.83;95673.47;5055106;28;20292;-72
2022/09/05 08:45:19;;;;;;;3.70;3.40;;;;;;;20.15;58.38;95675.47;5054622;28;20197;-72
2022/09/05 08:47:53;;;;;;;3.83;3.50;;;;;;;20.37;57.69;95675.44;5055361;28;20182;-72
2022/09/05 08:50:39;;;;;;;4.32;3.95;;;;;;;20.58;56.88;95675.44;5054614;28;20193;-72
2022/09/05 08:53:12;;;;;;;3.70;3.40;;;;;;;20.77;56.51;95676.19;5052068;28;20216;-72
2022/09/05 08:55:44;;;;;;;3.80;3.50;;;;;;;20.89;57.01;95673.78;5054343;28;20218;-72
2022/09/05 08:58:28;;;;;;;3.72;3.42;;;;;;;20.92;56.47;95675.78;5054289;28;20190;-72
2022/09/05 09:00:59;;;;;;;3.65;3.38;;;;;;;20.93;55.47;95679.38;5054824;28;20211;-72
2022/09/05 09:03:30;;;;;;;4.70;3.70;;;;;;;20.99;55.21;95674.13;5055473;28;20197;-72
2022/09/05 09:06:20;;;;;;;3.78;3.50;;;;;;;20.87;55.37;95680.97;5054136;28;20201;-72
2022/09/05 09:08:59;;;;;;;3.53;3.22;;;;;;;20.78;55.40;95684.22;5055550;28;20204;-72
2022/09/05 09:11:33;;;;;;;4.32;3.50;;;;;;;20.83;54.91;95678.19;5054947;28;20194;-72
2022/09/05 09:14:22;;;;;;;3.80;3.50;;;;;;;20.96;54.44;95675.75;5055168;28;20185;-72
2022/09/05 09:16:58;;;;;;;3.42;3.17;;;;;;;21.11;55.00;95682.91;5054776;28;20554;-72
2022/09/05 09:19:35;;;;;;;3.22;3.03;;;;;;;21.26;54.57;95682.84;5055235;28;20598;-72
2022/09/05 09:22:11;;;;;;;3.70;3.40;;;;;;;21.35;54.83;95674.81;5053286;28;20201;-73
2022/09/05 09:24:42;;;;;;;3.70;3.40;;;;;;;21.46;54.79;95675.56;5054197;28;20626;-72
2022/09/05 09:27:15;;;;;;;3.67;3.38;;;;;;;21.59;54.13;95670.28;5055031;28;20209;-72
2022/09/05 09:29:42;;;;;;;4.43;3.28;;;;;;;21.71;53.93;95663.38;5053888;28;20213;-72
2022/09/05 09:32:13;;;;;;;3.78;3.22;;;;;;;21.80;53.85;95675.75;5054629;28;20598;-72
2022/09/05 09:34:48;;;;;;;3.30;3.00;;;;;;;21.91;53.39;95670.06;5055202;28;20220;-72
2022/09/05 09:37:54;;;;;;;3.60;3.30;;;;;;;21.93;51.40;95672.44;5054225;28;20213;-72
2022/09/05 09:40:34;;;;;;;3.97;3.65;;;;;;;21.97;51.94;95668.44;5045234;28;20201;-72
2022/09/05 09:43:05;;;;;;;3.50;3.20;;;;;;;22.04;52.07;95665.56;5054923;28;20205;-72
2022/09/05 09:45:50;;;;;;;3.55;3.25;;;;;;;22.13;49.76;95661.47;5087784;28;20213;-72
2022/09/05 09:48:34;;;;;;;3.42;3.13;;;;;;;;;;5054003;28;20605;-72
2022/09/05 09:51:21;;;;;;;3.53;3.08;;;;;;;22.07;50.54;95645.06;5054225;28;20205;-72
2022/09/05 09:54:16;;;;;;;4.32;3.92;;;;;;;22.18;51.24;95644.19;5054093;28;20189;-72
2022/09/05 09:57:21;;;;;;;3.25;3.00;;;;;;;22.27;52.03;95647.34;5054433;28;20738;-72
2022/09/05 10:00:10;;;;;;;4.07;3.67;;;;;;;22.45;50.59;95644.38;5053615;28;20206;-72
2022/09/05 10:02:54;;;;;;;3.38;3.03;;;;;;;22.49;48.36;95633.88;5053730;28;20201;-73
2022/09/05 10:05:34;;;;;;;3.42;3.13;;;;;;;22.51;50.01;95632.25;5053522;28;20193;-72
2022/09/05 10:08:16;;;;;;;3.60;3.17;;;;;;;22.59;49.49;95627.38;5053391;28;20241;-72
2022/09/05 10:11:16;;;;;;;3.55;3.25;;;;;;;22.65;48.10;95628.47;5054123;28;20207;-72
2022/09/05 10:14:22;;;;;;;3.00;2.80;;;;;;;22.67;47.40;95628.09;5053780;28;20193;-72
2022/09/05 10:17:31;;;;;;;2.97;2.78;;;;;;;22.64;47.91;95623.28;5087019;28;20232;-72
2022/09/05 10:20:31;;;;;;;3.40;3.00;;;;;;;22.74;47.59;95616.75;4996660;28;20203;-72
2022/09/05 10:23:14;;;;;;;3.20;3.00;;;;;;;22.72;47.58;95611.53;5021319;28;20206;-72
2022/09/05 10:26:27;;;;;;;3.72;3.03;;;;;;;22.77;47.77;95613.91;5053495;28;20212;-73
2022/09/05 10:29:05;;;;;;;4.07;3.67;;;;;;;22.91;48.45;95609.31;4996561;28;20219;-73
2022/09/05 10:31:46;;;;;;;6.03;3.85;;;;;;;22.98;48.41;95615.66;4996744;28;20203;-72
2022/09/05 10:34:17;;;;;;;4.40;4.00;;;;;;;23.03;47.81;95606.78;5038476;28;20201;-72
2022/09/05 10:36:49;;;;;;;4.22;3.58;;;;;;;23.09;48.16;95598.66;5057759;28;20529;-72
2022/09/05 10:39:19;;;;;;;3.65;3.35;;;;;;;23.11;47.73;95593.41;5056866;28;20243;-72
2022/09/05 10:41:48;;;;;;;3.97;3.63;;;;;;;23.15;48.14;95599.78;5056883;28;20202;-72
2022/09/05 10:44:17;;;;;;;3.53;3.22;;;;;;;23.11;47.24;95599.03;5056977;28;20523;-72
2022/09/05 10:46:54;;;;;;;3.60;3.30;;;;;;;23.12;48.71;95595.00;5057580;28;20220;-72
2022/09/05 10:49:24;;;;;;;3.90;3.60;;;;;;;23.08;49.02;95588.63;5057036;28;20212;-73
2022/09/05 10:51:56;;;;;;;3.88;3.53;;;;;;;23.15;49.74;95596.97;5056904;28;20197;-73
2022/09/05 10:54:34;;;;;;;3.80;3.50;;;;;;;23.06;48.38;95599.53;5057263;28;20201;-72
2022/09/05 10:57:08;;;;;;;3.50;3.30;;;;;;;22.83;48.39;95594.53;5040090;28;20213;-73
2022/09/05 10:59:44;;;;;;;4.60;3.40;;;;;;;22.62;48.82;95603.22;5056886;28;20193;-72
2022/09/05 11:02:16;;;;;;;3.85;3.55;;;;;;;22.62;49.92;95597.59;5056420;28;20193;-72
2022/09/05 11:04:50;;;;;;;7.50;6.90;;;;;;;22.74;49.19;95599.88;5057538;28;20216;-72
2022/09/05 11:07:20;;;;;;;4.40;4.10;;;;;;;22.86;49.83;95595.72;5056552;28;20221;-72
2022/09/05 11:10:01;;;;;;;3.80;3.50;;;;;;;22.98;49.97;95589.56;5056382;28;20280;-72
2022/09/05 11:12:44;;;;;;;3.70;3.40;;;;;;;23.18;49.49;95582.06;5057174;28;20205;-72
2022/09/05 11:15:22;;;;;;;3.88;3.58;;;;;;;23.30;47.38;95580.69;5057502;28;20196;-72
2022/09/05 11:17:54;;;;;;;3.97;3.65;;;;;;;23.36;47.08;95576.19;5056456;28;20217;-72
2022/09/05 11:20:35;;;;;;;3.67;3.35;;;;;;;23.39;46.74;95575.34;5056058;28;20201;-72
2022/09/05 11:23:06;;;;;;;3.97;3.58;;;;;;;23.30;46.73;95569.44;5057280;28;20186;-72
2022/09/05 11:25:35;;;;;;;3.50;3.28;;;;;;;23.19;47.96;95569.59;5056514;28;20196;-72
2022/09/05 11:28:13;;;;;;;3.60;3.20;;;;;;;23.05;46.94;95566.97;5057102;28;20201;-72
2022/09/05 11:30:42;;;;;;;3.13;2.92;;;;;;;23.03;45.50;95575.84;5056903;28;20606;-72
2022/09/05 11:33:39;;;;;;;2.88;2.67;;;;;;;23.13;45.23;95570.47;5056138;28;20214;-72
2022/09/05 11:36:08;;;;;;;3.05;2.85;;;;;;;23.14;45.22;95570.06;5056900;28;20295;-72
2022/09/05 11:38:49;;;;;;;3.35;2.97;;;;;;;22.97;45.42;95562.66;5056281;28;20201;-72
2022/09/05 11:41:44;;;;;;;3.25;2.92;;;;;;;22.86;45.45;95568.41;5056360;28;20235;-72
2022/09/05 11:44:21;;;;;;;3.45;3.15;;;;;;;22.99;46.34;95555.41;5056812;28;20185;-73
2022/09/05 11:46:57;;;;;;;2.92;2.72;;;;;;;23.12;46.02;95557.63;5056688;28;20177;-72
2022/09/05 11:49:39;;;;;;;3.00;2.80;;;;;;;23.25;46.83;95556.66;5055836;28;20216;-73
2022/09/05 11:52:42;;;;;;;3.28;3.00;;;;;;;23.05;45.15;95558.53;5055815;28;20192;-73
2022/09/05 11:55:38;;;;;;;3.40;2.97;;;;;;;22.80;46.69;95558.81;5055875;28;20197;-73
2022/09/05 11:58:27;;;;;;;4.03;3.30;;;;;;;22.66;46.97;95548.56;5055344;28;20229;-72
2022/09/05 12:01:01;;;;;;;3.38;3.08;;;;;;;22.58;48.03;95556.25;5055304;28;20202;-72
2022/09/05 12:04:01;;;;;;;5.32;3.30;;;;;;;22.53;47.88;95553.94;5055329;28;20288;-72
2022/09/05 12:07:04;;;;;;;3.22;3.03;;;;;;;22.46;46.88;95545.56;5055819;28;20253;-72
2022/09/05 12:09:46;;;;;;;3.78;3.47;;;;;;;22.55;47.03;95542.28;5026028;28;20248;-72
2022/09/05 12:12:25;;;;;;;3.55;3.25;;;;;;;22.66;46.42;95542.13;5055326;28;20585;-72
2022/09/05 12:15:03;;;;;;;3.15;2.95;;;;;;;22.70;47.12;95538.06;5055238;28;20504;-72
2022/09/05 12:17:32;;;;;;;5.53;3.40;;;;;;;22.67;46.08;95535.31;5054996;28;20224;-72
2022/09/05 12:20:06;;;;;;;3.42;3.13;;;;;;;22.70;46.95;95538.06;5055258;28;20201;-72
2022/09/05 12:22:34;;;;;;;3.92;3.30;;;;;;;22.81;46.74;95541.53;5055472;28;20205;-71
2022/09/05 12:25:13;;;;;;;3.00;2.80;;;;;;;22.86;45.80;95533.84;5055267;28;20208;-72
2022/09/05 12:27:42;;;;;;;3.80;3.50;;;;;;;22.89;46.71;95533.00;5055036;28;20201;-71